logo
Search for airport 
image banner adimage banner adimage banner ad
image banner ad

FAAERF - Aero Farm

Located in Harrismith, South Africa

ICAO - , IATA -

Data provided by Airmate  

General information

Coordinates: S28°13'42" E29°6'57"
Elevation is 5580 feet MSL.
Magnetic variation is -22° East
View others Airports in Free State

Operational data

Special qualification required
Current time UTC:
Current local time:
Weather at : - ( 0 km )
METAR: YBSU 180813Z AUTO 13005KT 9999 // OVC015 23/20 Q1014 RF00.0/000.2
View NOTAMs / SUP AIP / TFR affecting this airport [VIEW]
Communications frequencies: [VIEW]

Runways:

RWY identifierQFULength (ft)Width (ft)SurfaceLDA (ft)
18156°295132GRAS
36336°295132GRAS

Airport contact information

Address: Harrismith South Africa

Satellite view of FAAERF